Time;durP1;ratioP1;P1;durP2;ratioP2;P2;SDS_P1;SDS_P2;PMS_P1;PMS_P2;Temp;Humidity;BMP_temperature;BMP_pressure;BME280_temperature;BME280_humidity;BME280_pressure;Samples;Min_cycle;Max_cycle;Signal;HPM_P1;HPM_P2
2022/04/10 00:00:05;;;;;;;7.05;1.58;;;4.30;99.90;;;;;;5014756;28;20053;-53
2022/04/10 00:02:31;;;;;;;3.47;1.73;;;4.30;99.90;;;;;;5013953;28;20087;-55
2022/04/10 00:04:57;;;;;;;4.28;2.25;;;4.20;99.90;;;;;;5013737;28;20021;-56
2022/04/10 00:07:22;;;;;;;4.30;1.77;;;4.20;99.90;;;;;;5012764;28;20127;-53
2022/04/10 00:09:48;;;;;;;5.60;2.03;;;4.10;99.90;;;;;;5013546;28;20030;-56
2022/04/10 00:12:13;;;;;;;4.68;2.35;;;4.10;99.90;;;;;;5013686;28;20026;-52
2022/04/10 00:14:39;;;;;;;8.57;1.77;;;4.00;99.90;;;;;;5012315;28;20026;-56
2022/04/10 00:17:05;;;;;;;11.55;1.85;;;4.00;99.90;;;;;;5013522;28;20053;-51
2022/04/10 00:19:31;;;;;;;7.50;2.17;;;4.00;99.90;;;;;;5013670;28;20033;-53
2022/04/10 00:21:56;;;;;;;5.22;1.67;;;4.00;99.90;;;;;;5013108;28;20029;-52
2022/04/10 00:24:25;;;;;;;4.22;1.77;;;4.00;99.90;;;;;;5012149;28;20018;-56
2022/04/10 00:26:52;;;;;;;4.38;2.35;;;4.10;99.90;;;;;;5012163;28;20092;-55
2022/04/10 00:29:18;;;;;;;7.18;2.35;;;4.00;99.90;;;;;;5013402;28;20075;-53
2022/04/10 00:31:44;;;;;;;3.13;2.05;;;4.00;99.90;;;;;;5012342;28;20025;-55
2022/04/10 00:34:11;;;;;;;4.30;1.65;;;4.00;99.90;;;;;;5012053;28;20030;-53
2022/04/10 00:36:36;;;;;;;4.68;1.88;;;4.00;99.90;;;;;;5013353;28;20029;-51
2022/04/10 00:39:03;;;;;;;9.70;2.25;;;3.90;99.90;;;;;;5012107;28;20022;-51
2022/04/10 00:41:29;;;;;;;5.43;1.80;;;3.80;99.90;;;;;;5013218;28;20488;-57
2022/04/10 00:44:05;;;;;;;4.32;1.85;;;3.80;99.90;;;;;;5013536;28;20018;-53
2022/04/10 00:46:31;;;;;;;5.88;1.77;;;3.80;99.90;;;;;;5013273;28;20501;-54
2022/04/10 00:48:57;;;;;;;5.72;2.13;;;3.80;99.90;;;;;;5013104;28;20040;-51
2022/04/10 00:51:41;;;;;;;6.68;2.17;;;3.70;99.90;;;;;;5013392;28;20030;-55
2022/04/10 00:54:18;;;;;;;4.68;1.92;;;3.70;99.90;;;;;;5011739;28;20034;-58
2022/04/10 00:56:45;;;;;;;4.53;2.15;;;3.70;99.90;;;;;;5013209;28;20025;-56
2022/04/10 00:59:12;;;;;;;4.20;1.98;;;3.70;99.90;;;;;;5013443;28;20022;-56
2022/04/10 01:01:40;;;;;;;3.15;1.80;;;3.70;99.90;;;;;;5012572;28;20048;-52
2022/04/10 01:04:06;;;;;;;4.45;1.98;;;3.70;99.90;;;;;;5011770;28;20124;-55
2022/04/10 01:06:35;;;;;;;5.63;1.73;;;3.90;99.90;;;;;;5013590;28;20030;-53
2022/04/10 01:09:03;;;;;;;5.30;2.05;;;3.90;99.90;;;;;;5013302;28;20037;-56
2022/04/10 01:11:29;;;;;;;3.85;1.90;;;3.80;99.90;;;;;;5013240;28;20108;-56
2022/04/10 01:13:55;;;;;;;5.70;2.17;;;3.90;99.90;;;;;;5011810;28;20084;-57
2022/04/10 01:16:22;;;;;;;7.18;2.17;;;3.90;99.90;;;;;;5012860;28;20039;-55
2022/04/10 01:18:49;;;;;;;7.22;2.03;;;3.80;99.90;;;;;;5011488;28;20021;-53
2022/04/10 01:21:23;;;;;;;4.90;2.10;;;3.70;99.90;;;;;;5015494;28;20046;-55
2022/04/10 01:23:49;;;;;;;11.20;2.58;;;3.60;99.90;;;;;;5017247;28;20022;-53
2022/04/10 01:26:15;;;;;;;5.90;2.05;;;3.60;99.90;;;;;;5015348;28;20022;-54
2022/04/10 01:29:02;;;;;;;7.38;2.40;;;3.50;99.90;;;;;;5015307;28;20083;-53
2022/04/10 01:31:30;;;;;;;5.80;2.03;;;3.50;99.90;;;;;;5015465;28;20097;-54
2022/04/10 01:33:58;;;;;;;7.60;2.38;;;3.50;99.90;;;;;;5015277;28;20030;-55
2022/04/10 01:36:25;;;;;;;5.57;2.15;;;3.50;99.90;;;;;;5015129;28;20029;-56
2022/04/10 01:38:54;;;;;;;6.88;2.25;;;3.50;99.90;;;;;;5015052;28;20026;-52
2022/04/10 01:41:20;;;;;;;4.35;2.63;;;3.60;99.90;;;;;;5016348;28;20018;-55
2022/04/10 01:43:47;;;;;;;6.28;2.42;;;3.70;99.90;;;;;;5015141;28;20393;-56
2022/04/10 01:46:13;;;;;;;8.07;2.80;;;3.70;99.90;;;;;;5015258;28;20447;-57
2022/04/10 01:48:39;;;;;;;5.32;2.42;;;3.90;99.90;;;;;;5015715;28;20057;-53
2022/04/10 01:51:06;;;;;;;5.45;2.50;;;4.10;99.90;;;;;;5016270;28;20026;-54
2022/04/10 01:53:31;;;;;;;5.13;2.13;;;4.10;99.90;;;;;;5016342;28;20044;-56
2022/04/10 01:55:57;;;;;;;6.80;2.67;;;4.10;99.90;;;;;;5015126;28;20030;-56
2022/04/10 01:58:22;;;;;;;7.82;2.30;;;4.10;99.90;;;;;;5015186;28;20064;-52
2022/04/10 02:00:48;;;;;;;9.38;2.55;;;4.10;99.90;;;;;;5016324;28;20029;-54
2022/04/10 02:03:14;;;;;;;6.88;2.88;;;4.00;99.90;;;;;;5014847;28;20026;-53
2022/04/10 02:05:39;;;;;;;7.95;2.40;;;3.90;99.90;;;;;;5016282;28;20030;-55
2022/04/10 02:08:05;;;;;;;5.28;2.35;;;3.90;99.90;;;;;;5014857;28;20044;-56
2022/04/10 02:10:31;;;;;;;5.97;2.53;;;3.80;99.90;;;;;;5015457;28;20061;-54
2022/04/10 02:12:57;;;;;;;8.50;2.95;;;3.80;99.90;;;;;;5014801;28;20053;-57
2022/04/10 02:15:22;;;;;;;5.43;2.60;;;3.70;99.90;;;;;;5015553;28;20030;-53
2022/04/10 02:17:48;;;;;;;6.03;2.53;;;3.60;99.90;;;;;;5014631;28;20503;-54
2022/04/10 02:20:13;;;;;;;7.50;2.45;;;3.50;99.90;;;;;;5014765;28;20022;-54
2022/04/10 02:22:39;;;;;;;4.18;2.50;;;3.40;99.90;;;;;;5015819;28;20018;-56
2022/04/10 02:25:05;;;;;;;8.35;2.78;;;3.30;99.90;;;;;;5014516;28;20030;-58
2022/04/10 02:27:31;;;;;;;5.50;2.40;;;3.40;99.90;;;;;;5014579;28;20041;-63
2022/04/10 02:29:56;;;;;;;6.43;2.80;;;3.30;99.90;;;;;;5016057;28;20041;-56
2022/04/10 02:32:23;;;;;;;5.43;2.40;;;3.30;99.90;;;;;;5014073;28;20053;-55
2022/04/10 02:34:49;;;;;;;9.00;2.88;;;3.20;99.90;;;;;;5015281;28;20057;-55
2022/04/10 02:37:14;;;;;;;11.18;2.33;;;3.20;99.90;;;;;;5014156;28;20034;-57
2022/04/10 02:39:40;;;;;;;12.32;2.97;;;3.20;99.90;;;;;;5014654;28;20026;-57
2022/04/10 02:42:06;;;;;;;7.10;2.75;;;3.10;99.90;;;;;;5014399;28;20021;-57
2022/04/10 02:44:31;;;;;;;7.93;3.03;;;3.10;99.90;;;;;;5014131;28;20109;-53
2022/04/10 02:46:57;;;;;;;9.35;3.15;;;3.00;99.90;;;;;;5014122;28;20030;-63
2022/04/10 02:49:23;;;;;;;8.18;2.28;;;3.00;99.90;;;;;;5014654;28;20438;-55
2022/04/10 02:51:49;;;;;;;4.68;2.40;;;3.00;99.90;;;;;;5014130;28;20097;-56
2022/04/10 02:54:16;;;;;;;7.72;2.90;;;2.90;99.90;;;;;;5014125;28;20042;-56
2022/04/10 02:56:42;;;;;;;15.32;3.33;;;2.90;99.90;;;;;;5015137;28;20052;-57
2022/04/10 02:59:10;;;;;;;11.90;3.17;;;2.90;99.90;;;;;;5014023;28;20022;-58
2022/04/10 03:01:36;;;;;;;7.43;2.67;;;2.90;99.90;;;;;;5013940;28;20022;-55
2022/04/10 03:04:02;;;;;;;5.90;2.78;;;3.00;99.90;;;;;;5013766;28;20037;-57
2022/04/10 03:06:27;;;;;;;6.68;2.88;;;3.00;99.90;;;;;;5013623;28;20025;-57
2022/04/10 03:08:53;;;;;;;11.35;3.03;;;2.90;99.90;;;;;;5014935;28;20026;-56
2022/04/10 03:11:19;;;;;;;8.77;2.33;;;3.00;99.90;;;;;;5014739;28;20022;-57
2022/04/10 03:13:45;;;;;;;8.48;2.70;;;3.00;99.90;;;;;;5014788;28;20025;-57
2022/04/10 03:16:10;;;;;;;8.90;2.17;;;3.00;99.90;;;;;;5014879;28;20026;-57
2022/04/10 03:18:36;;;;;;;8.57;2.50;;;3.10;99.90;;;;;;5014807;28;20018;-54
2022/04/10 03:21:03;;;;;;;10.20;2.70;;;3.10;99.90;;;;;;5014383;28;20018;-57
2022/04/10 03:23:28;;;;;;;7.10;2.70;;;3.10;99.90;;;;;;5013351;28;20084;-55
2022/04/10 03:25:54;;;;;;;10.75;2.50;;;3.10;99.90;;;;;;5014112;28;20026;-57
2022/04/10 03:28:19;;;;;;;8.32;2.45;;;3.20;99.90;;;;;;5014639;28;20485;-57
2022/04/10 03:30:45;;;;;;;7.72;2.40;;;3.30;99.90;;;;;;5013573;28;20090;-55
2022/04/10 03:33:11;;;;;;;4.45;2.47;;;3.30;99.90;;;;;;5014389;28;20029;-55
2022/04/10 03:35:36;;;;;;;5.28;2.67;;;3.30;99.90;;;;;;5013808;28;20022;-56
2022/04/10 03:38:02;;;;;;;10.10;2.97;;;3.40;99.90;;;;;;5013133;28;20080;-55
2022/04/10 03:40:28;;;;;;;3.95;2.15;;;3.50;99.90;;;;;;5013377;28;20030;-55
2022/04/10 03:42:53;;;;;;;6.30;2.38;;;3.50;99.90;;;;;;5013871;28;20101;-54
2022/04/10 03:45:19;;;;;;;11.85;3.08;;;3.60;99.90;;;;;;5014308;28;20027;-57
2022/04/10 03:47:47;;;;;;;5.90;2.67;;;3.60;99.90;;;;;;5012979;28;20029;-56
2022/04/10 03:50:12;;;;;;;5.45;2.42;;;3.70;99.90;;;;;;5013082;28;20026;-53
2022/04/10 03:52:38;;;;;;;7.45;2.20;;;3.70;99.90;;;;;;5014125;28;20022;-57
2022/04/10 03:55:04;;;;;;;9.20;2.70;;;3.80;99.90;;;;;;5013011;28;20037;-54
2022/04/10 03:57:30;;;;;;;10.50;2.50;;;3.80;99.90;;;;;;5014192;28;20034;-56
2022/04/10 03:59:56;;;;;;;7.10;2.50;;;3.70;99.90;;;;;;5014273;28;20369;-55
2022/04/10 04:02:24;;;;;;;5.85;2.70;;;3.70;99.90;;;;;;5012687;28;20028;-54
2022/04/10 04:04:50;;;;;;;7.53;2.13;;;3.80;99.90;;;;;;5012425;28;20092;-56
2022/04/10 04:07:16;;;;;;;12.50;2.70;;;3.80;99.90;;;;;;5012552;28;20113;-56
2022/04/10 04:09:42;;;;;;;11.00;2.63;;;3.80;99.90;;;;;;5013800;28;20029;-57
2022/04/10 04:12:08;;;;;;;13.95;3.30;;;3.80;99.90;;;;;;5013855;28;20033;-57
2022/04/10 04:14:37;;;;;;;6.43;2.38;;;3.70;99.90;;;;;;5013900;28;20026;-53
2022/04/10 04:17:03;;;;;;;8.70;2.67;;;3.60;99.90;;;;;;5013882;28;20469;-57
2022/04/10 04:19:29;;;;;;;6.97;3.03;;;3.60;99.90;;;;;;5013550;28;20044;-56
2022/04/10 04:21:54;;;;;;;5.15;2.05;;;3.50;99.90;;;;;;5013562;28;20077;-57
2022/04/10 04:24:20;;;;;;;11.30;2.40;;;3.40;99.90;;;;;;5012703;28;20126;-57
2022/04/10 04:26:45;;;;;;;9.88;2.72;;;3.40;99.90;;;;;;5013094;28;20022;-57
2022/04/10 04:29:11;;;;;;;3.35;1.75;;;3.40;99.90;;;;;;5012399;28;20029;-58
2022/04/10 04:31:37;;;;;;;4.75;2.30;;;3.40;99.90;;;;;;5013651;28;20033;-57
2022/04/10 04:34:02;;;;;;;5.55;2.33;;;3.40;99.90;;;;;;5013749;28;20033;-55
2022/04/10 04:36:28;;;;;;;8.38;2.38;;;3.40;99.90;;;;;;5013742;28;20081;-54
2022/04/10 04:38:56;;;;;;;7.95;2.67;;;3.40;99.90;;;;;;5012611;28;20022;-56
2022/04/10 04:41:22;;;;;;;13.70;3.40;;;3.40;99.90;;;;;;5012417;28;20025;-56
2022/04/10 04:43:47;;;;;;;5.45;2.85;;;3.40;99.90;;;;;;5012869;28;20018;-55
2022/04/10 04:46:13;;;;;;;12.05;2.97;;;3.50;99.90;;;;;;5012516;28;20076;-56
2022/04/10 04:48:39;;;;;;;6.93;2.80;;;3.50;99.90;;;;;;5013867;28;20034;-54
2022/04/10 04:51:04;;;;;;;9.23;2.30;;;3.60;99.90;;;;;;5012373;28;20077;-57
2022/04/10 04:53:30;;;;;;;5.65;2.55;;;3.60;99.90;;;;;;5013493;28;20065;-56
2022/04/10 04:55:55;;;;;;;11.52;2.80;;;3.80;99.90;;;;;;5013746;28;20034;-56
2022/04/10 04:58:21;;;;;;;6.10;2.50;;;4.00;99.90;;;;;;5013568;28;20033;-55
2022/04/10 05:00:47;;;;;;;5.38;2.65;;;4.10;99.90;;;;;;5012667;28;20084;-55
2022/04/10 05:03:17;;;;;;;10.82;3.00;;;4.10;99.90;;;;;;5013762;28;20022;-57
2022/04/10 05:05:43;;;;;;;5.47;2.75;;;4.20;99.90;;;;;;5013832;28;20026;-55
2022/04/10 05:08:09;;;;;;;9.15;3.15;;;4.20;99.90;;;;;;5013863;28;20022;-57
2022/04/10 05:10:34;;;;;;;6.15;2.92;;;4.20;99.90;;;;;;5012166;28;20022;-56
2022/04/10 05:13:00;;;;;;;5.45;2.80;;;4.20;99.90;;;;;;5013847;28;20040;-55
2022/04/10 05:15:25;;;;;;;6.82;2.80;;;4.20;99.90;;;;;;5013324;28;20030;-57
2022/04/10 05:17:51;;;;;;;4.60;2.40;;;4.20;99.90;;;;;;5012263;28;20080;-56
2022/04/10 05:20:17;;;;;;;6.03;3.00;;;4.20;99.90;;;;;;5012538;28;20029;-57
2022/04/10 05:22:43;;;;;;;7.80;3.20;;;4.30;99.90;;;;;;5012181;28;20022;-53
2022/04/10 05:25:09;;;;;;;8.30;2.95;;;4.40;99.90;;;;;;5013264;28;20481;-57
2022/04/10 05:27:35;;;;;;;5.63;2.72;;;4.50;99.90;;;;;;5012996;28;20030;-55
2022/04/10 05:30:01;;;;;;;5.40;2.20;;;4.80;99.90;;;;;;5012057;28;20031;-58
2022/04/10 05:32:27;;;;;;;4.72;2.53;;;5.30;99.90;;;;;;5013346;28;20030;-55
2022/04/10 05:34:52;;;;;;;6.97;2.20;;;5.90;99.90;;;;;;5013280;28;20049;-56
2022/04/10 05:37:18;;;;;;;9.60;2.63;;;6.50;99.90;;;;;;5011969;28;20026;-54
2022/04/10 05:39:43;;;;;;;3.45;2.40;;;7.10;99.90;;;;;;5012080;28;20022;-55
2022/04/10 05:42:09;;;;;;;6.47;2.50;;;7.70;99.90;;;;;;5013230;28;20025;-55
2022/04/10 05:44:35;;;;;;;12.35;2.33;;;8.30;99.90;;;;;;5011870;28;20026;-56
2022/04/10 05:47:01;;;;;;;11.63;2.75;;;9.00;99.90;;;;;;5013152;28;20029;-56
2022/04/10 05:49:27;;;;;;;7.50;2.53;;;9.50;99.90;;;;;;5012923;28;20022;-55
2022/04/10 05:51:53;;;;;;;7.43;2.20;;;10.10;99.90;;;;;;5013358;28;20037;-56
2022/04/10 05:54:18;;;;;;;8.55;2.58;;;10.50;99.90;;;;;;5011533;28;20041;-57
2022/04/10 05:56:44;;;;;;;10.07;2.63;;;11.00;99.90;;;;;;5012991;28;20033;-57
2022/04/10 05:59:09;;;;;;;2.90;1.98;;;11.40;99.90;;;;;;5011682;28;20018;-58
2022/04/10 06:01:35;;;;;;;6.70;2.28;;;11.90;99.90;;;;;;5012709;28;20022;-57
2022/04/10 06:04:01;;;;;;;7.30;2.28;;;12.20;99.90;;;;;;5011703;28;20026;-57
2022/04/10 06:06:26;;;;;;;5.00;2.40;;;12.40;99.90;;;;;;5014283;28;20101;-57
2022/04/10 06:08:52;;;;;;;6.15;2.47;;;12.70;99.90;;;;;;5015564;28;20032;-58
2022/04/10 06:11:18;;;;;;;5.55;2.30;;;13.20;99.90;;;;;;5015525;28;20025;-57
2022/04/10 06:13:43;;;;;;;11.07;2.63;;;13.60;99.90;;;;;;5016036;28;20029;-57
2022/04/10 06:16:09;;;;;;;7.53;2.90;;;13.80;99.90;;;;;;5014897;28;20026;-56
2022/04/10 06:18:34;;;;;;;7.70;2.83;;;13.90;99.90;;;;;;5015267;28;20029;-58
2022/04/10 06:21:00;;;;;;;6.43;3.17;;;14.40;99.90;;;;;;5015265;28;20022;-56
2022/04/10 06:23:26;;;;;;;8.52;2.78;;;14.10;99.90;;;;;;5014934;28;20034;-57
2022/04/10 06:25:52;;;;;;;13.07;3.75;;;14.50;99.90;;;;;;5016201;28;20034;-57
2022/04/10 06:28:17;;;;;;;5.95;3.20;;;14.70;99.90;;;;;;5015658;28;20112;-58
2022/04/10 06:30:45;;;;;;;9.57;3.05;;;14.90;99.90;;;;;;5014851;28;20028;-58
2022/04/10 06:33:11;;;;;;;11.00;4.55;;;15.40;98.90;;;;;;5015907;28;20076;-58
2022/04/10 06:35:39;;;;;;;12.68;5.28;;;16.00;98.10;;;;;;5015595;28;20125;-57
2022/04/10 06:38:05;;;;;;;9.85;4.68;;;16.10;96.20;;;;;;5015958;28;20064;-58
2022/04/10 06:40:30;;;;;;;9.88;3.50;;;16.50;95.30;;;;;;5015890;28;20018;-56
2022/04/10 06:42:56;;;;;;;8.35;3.25;;;17.00;93.40;;;;;;5014563;28;20033;-55
2022/04/10 06:45:21;;;;;;;8.93;3.08;;;17.40;92.40;;;;;;5014952;28;20032;-58
2022/04/10 06:47:47;;;;;;;12.90;5.38;;;17.60;91.40;;;;;;5014567;28;20029;-57
2022/04/10 06:50:13;;;;;;;10.00;4.22;;;17.80;91.00;;;;;;5015806;28;20021;-58
2022/04/10 06:52:39;;;;;;;14.10;4.50;;;18.20;90.80;;;;;;5015688;28;20049;-57
2022/04/10 06:55:05;;;;;;;5.57;3.35;;;18.20;87.60;;;;;;5014202;28;20026;-57
2022/04/10 06:57:30;;;;;;;10.93;4.70;;;18.00;87.50;;;;;;5014338;28;20033;-55
2022/04/10 06:59:56;;;;;;;7.75;3.42;;;18.30;88.20;;;;;;5014189;28;20022;-57
2022/04/10 07:02:22;;;;;;;9.00;3.67;;;18.30;86.50;;;;;;5014198;28;20045;-57
2022/04/10 07:04:47;;;;;;;12.32;6.03;;;18.30;82.60;;;;;;5015343;28;20392;-56
2022/04/10 07:07:13;;;;;;;30.30;19.20;;;18.50;84.40;;;;;;5014949;28;20028;-57
2022/04/10 07:09:38;;;;;;;26.98;16.52;;;19.00;84.50;;;;;;5014445;28;20030;-58
2022/04/10 07:12:04;;;;;;;13.50;7.38;;;19.60;79.10;;;;;;5015214;28;20022;-58
2022/04/10 07:14:30;;;;;;;14.38;9.95;;;19.60;78.10;;;;;;5015190;28;20108;-58
2022/04/10 07:16:55;;;;;;;8.13;3.75;;;19.90;76.80;;;;;;5015303;28;20026;-57
2022/04/10 07:19:21;;;;;;;7.68;3.08;;;20.20;76.50;;;;;;5014474;28;20026;-57
2022/04/10 07:24:31;;;;;;;6.47;3.25;;;21.00;72.40;;;;;;5015604;28;20033;-58
2022/04/10 07:26:57;;;;;;;6.93;3.00;;;21.60;72.80;;;;;;5015047;28;20026;-58
2022/04/10 07:29:22;;;;;;;4.43;2.42;;;21.10;70.60;;;;;;5013625;28;20030;-58
2022/04/10 07:31:48;;;;;;;14.95;6.53;;;21.40;69.20;;;;;;5014153;28;20026;-58
2022/04/10 07:34:14;;;;;;;10.95;6.97;;;21.60;68.90;;;;;;5014505;28;20026;-58
2022/04/10 07:36:39;;;;;;;9.35;5.30;;;22.20;67.10;;;;;;5014358;28;20025;-59
2022/04/10 07:39:11;;;;;;;8.48;5.32;;;22.70;64.80;;;;;;5013575;28;20061;-59
2022/04/10 07:41:37;;;;;;;9.38;4.82;;;23.10;66.30;;;;;;5013620;28;20025;-59
2022/04/10 07:44:02;;;;;;;9.10;5.97;;;23.90;61.90;;;;;;5013683;28;20018;-59
2022/04/10 07:49:12;;;;;;;9.90;5.38;;;24.30;62.20;;;;;;5015190;28;20044;-59
2022/04/10 07:51:38;;;;;;;9.80;3.60;;;24.40;61.00;;;;;;5013654;28;20033;-58
2022/04/10 07:54:03;;;;;;;6.28;3.13;;;24.00;59.00;;;;;;5014465;28;20068;-56
2022/04/10 07:56:29;;;;;;;6.38;2.67;;;23.40;60.20;;;;;;5014754;28;20026;-57
2022/04/10 07:58:55;;;;;;;7.50;2.97;;;22.80;60.70;;;;;;5014376;28;20121;-60
2022/04/10 08:01:20;;;;;;;10.43;3.55;;;21.30;63.30;;;;;;5020733;28;20057;-59
2022/04/10 08:03:51;;;;;;;5.85;2.63;;;19.40;65.00;;;;;;5032766;28;20023;-58
2022/04/10 08:06:17;;;;;;;7.10;2.40;;;18.50;69.80;;;;;;5025730;28;20029;-59
2022/04/10 08:08:43;;;;;;;7.57;2.75;;;17.60;70.20;;;;;;5021145;28;20028;-59
2022/04/10 08:11:21;;;;;;;9.27;2.50;;;17.00;71.80;;;;;;5111473;27;20420;-59
2022/04/10 08:13:47;;;;;;;4.80;2.35;;;16.50;74.30;;;;;;5101092;28;20028;-58
2022/04/10 08:16:15;;;;;;;5.50;2.53;;;16.90;73.20;;;;;;5113326;28;20460;-59
2022/04/10 08:18:40;;;;;;;11.68;2.92;;;16.80;71.70;;;;;;5113357;28;20481;-59
2022/04/10 08:21:07;;;;;;;12.50;2.50;;;16.30;72.60;;;;;;5113211;28;20023;-59
2022/04/10 08:23:34;;;;;;;6.20;2.70;;;15.90;74.10;;;;;;5113288;28;20544;-61
2022/04/10 08:26:00;;;;;;;3.75;2.08;;;15.80;75.20;;;;;;5113223;28;20118;-59
2022/04/10 08:28:25;;;;;;;5.60;2.17;;;15.50;76.60;;;;;;5131440;28;20058;-60
2022/04/10 08:30:51;;;;;;;8.43;2.78;;;15.60;77.80;;;;;;5113912;27;20019;-59
2022/04/10 08:33:17;;;;;;;8.95;2.67;;;15.30;77.30;;;;;;5132490;27;20031;-58
2022/04/10 08:35:42;;;;;;;3.78;2.25;;;14.90;77.30;;;;;;5113433;28;20072;-60
2022/04/10 08:38:08;;;;;;;11.60;3.08;;;15.40;78.20;;;;;;5113424;28;20024;-59
2022/04/10 08:40:34;;;;;;;7.40;2.05;;;16.00;75.30;;;;;;5112865;28;20034;-60
2022/04/10 08:43:03;;;;;;;3.42;1.80;;;16.60;74.10;;;;;;5112731;28;20019;-60
2022/04/10 08:45:29;;;;;;;4.63;1.75;;;18.10;72.90;;;;;;5131528;28;20035;-60
2022/04/10 08:47:55;;;;;;;3.80;1.70;;;18.30;70.00;;;;;;5112602;28;20019;-59
2022/04/10 08:50:23;;;;;;;7.00;2.10;;;17.70;71.80;;;;;;5112651;28;20030;-60
2022/04/10 08:52:52;;;;;;;5.00;1.88;;;17.30;71.00;;;;;;5112810;28;20020;-59
2022/04/10 08:55:18;;;;;;;5.93;1.65;;;17.50;73.00;;;;;;5131044;28;20466;-60
2022/04/10 08:57:44;;;;;;;6.25;2.13;;;18.60;70.10;;;;;;5131023;28;20027;-59
2022/04/10 09:00:10;;;;;;;8.77;2.22;;;20.60;66.20;;;;;;5112534;28;20023;-61
2022/04/10 09:02:47;;;;;;;5.85;2.60;;;22.00;61.30;;;;;;5112888;28;20023;-60
2022/04/10 09:05:20;;;;;;;5.15;2.42;;;22.20;59.90;;;;;;5112554;28;20030;-60
2022/04/10 09:08:24;;;;;;;5.68;2.17;;;21.80;61.70;;;;;;5130804;28;20478;-60
2022/04/10 09:11:05;;;;;;;5.30;2.15;;;20.80;62.80;;;;;;5027540;28;20034;-60
2022/04/10 09:13:39;;;;;;;5.60;2.08;;;20.00;65.20;;;;;;5011445;28;20022;-60
2022/04/10 09:16:10;;;;;;;10.35;2.40;;;20.20;64.50;;;;;;5074447;28;20503;-60
2022/04/10 09:19:00;;;;;;;5.10;1.40;;;20.40;64.40;;;;;;5130916;28;20477;-60
2022/04/10 09:21:32;;;;;;;4.15;1.70;;;20.40;65.80;;;;;;5106131;28;20024;-60
2022/04/10 09:24:06;;;;;;;6.05;1.73;;;19.50;65.30;;;;;;5099313;28;20035;-60
2022/04/10 09:26:49;;;;;;;4.03;2.03;;;18.60;65.40;;;;;;5098562;28;20077;-59
2022/04/10 09:29:20;;;;;;;5.82;1.95;;;17.90;65.80;;;;;;5116535;28;20023;-59
2022/04/10 09:31:46;;;;;;;4.25;1.52;;;18.40;65.70;;;;;;5098667;28;20023;-60
2022/04/10 09:34:17;;;;;;;9.48;1.95;;;18.40;68.70;;;;;;5098181;28;20478;-60
2022/04/10 09:36:47;;;;;;;;;;;19.00;64.00;;;;;;5098658;28;20115;-60
2022/04/10 09:39:58;;;;;;;4.57;1.88;;;19.10;63.40;;;;;;5098246;28;19926;-59
2022/04/10 09:42:33;;;;;;;6.88;2.92;;;18.70;65.20;;;;;;5098219;28;20485;-60
2022/04/10 09:44:59;;;;;;;9.82;5.50;;;18.10;67.50;;;;;;5098023;28;20032;-60
2022/04/10 09:47:27;;;;;;;16.33;5.50;;;17.30;67.80;;;;;;5098043;28;20050;-59
2022/04/10 09:50:03;;;;;;;16.85;8.65;;;16.80;68.50;;;;;;5116396;28;20034;-59
2022/04/10 09:52:29;;;;;;;23.52;15.73;;;16.80;66.70;;;;;;5097985;28;20031;-60
2022/04/10 09:54:54;;;;;;;19.83;12.65;;;17.40;66.20;;;;;;5097797;28;20015;-60
2022/04/10 09:57:22;;;;;;;22.98;9.35;;;18.20;67.50;;;;;;5098166;28;20066;-60
2022/04/10 09:59:52;;;;;;;15.00;9.35;;;19.50;63.30;;;;;;5099075;28;20118;-59
2022/04/10 10:02:19;;;;;;;6.22;3.65;;;21.20;63.30;;;;;;5098208;28;20026;-60
2022/04/10 10:04:46;;;;;;;6.03;2.47;;;22.80;60.00;;;;;;5115905;28;20053;-60
2022/04/10 10:07:15;;;;;;;5.85;2.60;;;23.70;56.30;;;;;;5097675;28;20028;-59
2022/04/10 10:09:42;;;;;;;6.00;1.58;;;23.80;56.60;;;;;;5116023;28;20084;-60
2022/04/10 10:12:08;;;;;;;4.82;1.83;;;23.50;55.30;;;;;;5097822;28;20041;-60
2022/04/10 10:14:35;;;;;;;5.47;2.45;;;22.60;60.00;;;;;;5097493;28;20024;-59
2022/04/10 10:17:03;;;;;;;4.82;1.55;;;21.10;56.70;;;;;;5097405;28;20020;-60
2022/04/10 10:19:34;;;;;;;4.32;1.30;;;20.50;61.70;;;;;;5097329;28;20054;-59
2022/04/10 10:22:02;;;;;;;5.63;1.40;;;19.90;59.20;;;;;;5115579;28;20035;-60
2022/04/10 10:24:33;;;;;;;6.97;2.95;;;18.90;63.40;;;;;;5097556;28;20023;-59
2022/04/10 10:27:20;;;;;;;4.97;1.88;;;18.60;64.10;;;;;;5098194;28;20027;-58
2022/04/10 10:29:54;;;;;;;7.07;1.60;;;18.60;63.60;;;;;;5097092;28;20120;-59
2022/04/10 10:32:36;;;;;;;4.03;1.60;;;18.40;63.90;;;;;;5096784;28;20096;-60
2022/04/10 10:35:01;;;;;;;4.50;1.23;;;18.00;64.50;;;;;;5115063;28;20091;-60
2022/04/10 10:37:29;;;;;;;4.18;1.35;;;18.30;63.10;;;;;;5097070;28;20114;-59
2022/04/10 10:39:55;;;;;;;5.45;1.30;;;18.50;64.90;;;;;;5115169;28;20024;-59
2022/04/10 10:42:22;;;;;;;3.85;1.40;;;18.30;62.70;;;;;;5096762;28;20034;-60
2022/04/10 10:44:49;;;;;;;5.55;1.50;;;18.40;62.50;;;;;;5097642;28;20019;-60
2022/04/10 10:47:26;;;;;;;4.90;1.92;;;18.20;64.50;;;;;;5115005;28;20020;-60
2022/04/10 10:49:53;;;;;;;6.90;2.92;;;18.40;63.40;;;;;;5115382;28;20102;-60
2022/04/10 10:52:19;;;;;;;2.75;1.70;;;17.90;63.60;;;;;;5097038;28;20027;-59
2022/04/10 10:54:52;;;;;;;3.33;1.63;;;17.70;65.50;;;;;;5114866;28;20019;-59
2022/04/10 10:57:26;;;;;;;1.63;0.88;;;17.10;65.60;;;;;;5097228;28;20137;-59
2022/04/10 11:00:13;;;;;;;1.63;1.38;;;17.00;67.60;;;;;;5096646;28;20114;-59
2022/04/10 11:02:39;;;;;;;3.83;1.42;;;16.80;68.80;;;;;;5095706;28;20118;-60
2022/04/10 11:05:07;;;;;;;3.97;2.75;;;16.40;67.50;;;;;;5096314;28;20023;-59
2022/04/10 11:07:39;;;;;;;3.70;2.35;;;16.20;70.50;;;;;;5097270;28;20049;-59
2022/04/10 11:10:09;;;;;;;6.60;2.03;;;16.20;68.70;;;;;;5114520;28;20028;-59
2022/04/10 11:12:49;;;;;;;13.15;11.10;;;16.00;72.00;;;;;;5096445;28;20062;-59
2022/04/10 11:15:22;;;;;;;3.90;2.58;;;16.00;70.80;;;;;;5114888;28;20016;-57
2022/04/10 11:17:49;;;;;;;8.95;3.30;;;15.70;69.80;;;;;;5096332;28;20020;-58
2022/04/10 11:20:17;;;;;;;3.30;1.67;;;15.60;70.50;;;;;;5114820;28;20019;-60
2022/04/10 11:22:53;;;;;;;4.00;2.08;;;15.60;69.50;;;;;;5096187;28;20028;-59
2022/04/10 11:25:31;;;;;;;2.70;2.25;;;15.60;68.00;;;;;;5096118;28;20020;-55
2022/04/10 11:27:59;;;;;;;5.65;2.30;;;15.50;68.00;;;;;;5096254;28;20114;-59
2022/04/10 11:30:37;;;;;;;4.70;1.60;;;15.40;70.50;;;;;;5096872;28;20024;-59
2022/04/10 11:33:04;;;;;;;8.55;1.80;;;15.50;72.50;;;;;;5114590;28;20019;-59
2022/04/10 11:35:35;;;;;;;5.22;2.85;;;15.70;70.50;;;;;;5114585;28;20030;-59
2022/04/10 11:38:05;;;;;;;6.80;4.88;;;15.70;70.70;;;;;;5114156;28;20051;-59
2022/04/10 11:40:35;;;;;;;5.05;3.10;;;15.80;72.40;;;;;;5096371;28;20066;-58
2022/04/10 11:43:02;;;;;;;3.90;1.83;;;16.10;68.70;;;;;;5114351;28;20024;-59
2022/04/10 11:45:30;;;;;;;10.63;6.25;;;16.10;69.30;;;;;;5095606;28;20028;-58
2022/04/10 11:48:00;;;;;;;12.32;8.43;;;16.10;71.00;;;;;;5096887;28;20031;-59
2022/04/10 11:50:27;;;;;;;10.95;6.78;;;16.20;73.30;;;;;;5106035;28;20114;-57
2022/04/10 11:53:03;;;;;;;6.70;3.58;;;16.20;72.50;;;;;;5106938;28;20111;-48
2022/04/10 11:55:32;;;;;;;5.72;1.70;;;16.10;71.20;;;;;;5114280;28;20020;-48
2022/04/10 11:57:59;;;;;;;5.80;2.75;;;15.90;73.70;;;;;;5113954;28;20043;-51
2022/04/10 12:00:26;;;;;;;4.90;3.03;;;15.90;73.30;;;;;;5095966;28;20059;-50
2022/04/10 12:02:53;;;;;;;3.80;2.53;;;15.60;73.90;;;;;;5095935;28;20050;-52
2022/04/10 12:05:30;;;;;;;4.28;2.83;;;15.50;72.50;;;;;;5096023;28;20098;-48
2022/04/10 12:08:03;;;;;;;3.92;2.33;;;15.30;75.10;;;;;;5096494;28;20115;-50
2022/04/10 12:10:29;;;;;;;4.82;1.10;;;15.30;70.90;;;;;;5095611;28;20027;-48
2022/04/10 12:12:56;;;;;;;4.03;2.83;;;15.10;71.60;;;;;;5113677;28;20019;-50
2022/04/10 12:15:22;;;;;;;4.95;3.65;;;14.90;71.50;;;;;;5095593;28;20019;-48
2022/04/10 12:17:49;;;;;;;4.35;2.58;;;14.70;70.50;;;;;;5113800;28;20087;-48
2022/04/10 12:20:15;;;;;;;3.13;2.13;;;14.60;71.60;;;;;;5095504;28;20031;-48
2022/04/10 12:22:42;;;;;;;14.30;10.40;;;14.50;74.40;;;;;;5095472;28;20019;-51
2022/04/10 12:25:09;;;;;;;3.58;1.73;;;14.40;74.30;;;;;;5113568;28;20028;-48
2022/04/10 12:27:35;;;;;;;11.43;6.40;;;14.50;75.00;;;;;;5114002;28;20031;-50
2022/04/10 12:30:10;;;;;;;2.22;1.50;;;14.50;75.70;;;;;;5095358;28;20050;-51
2022/04/10 12:32:37;;;;;;;3.30;1.30;;;14.50;77.30;;;;;;5095469;28;20015;-52
2022/04/10 12:35:11;;;;;;;2.72;1.17;;;14.40;76.70;;;;;;5095613;28;20045;-49
2022/04/10 12:37:45;;;;;;;5.18;1.33;;;14.60;76.20;;;;;;5095393;28;20020;-53
2022/04/10 12:40:11;;;;;;;3.45;1.38;;;14.80;75.60;;;;;;5113595;28;20020;-52
2022/04/10 12:42:39;;;;;;;2.38;0.80;;;15.00;78.70;;;;;;5095675;28;20020;-48
2022/04/10 12:45:08;;;;;;;2.95;1.50;;;15.30;74.50;;;;;;5095197;28;20497;-49
2022/04/10 12:47:47;;;;;;;3.13;1.80;;;15.50;70.10;;;;;;5095207;28;20039;-49
2022/04/10 12:50:16;;;;;;;3.85;1.00;;;15.80;70.30;;;;;;5095187;28;20027;-52
2022/04/10 12:52:42;;;;;;;2.90;1.20;;;15.90;70.80;;;;;;5095578;28;20073;-50
2022/04/10 12:55:26;;;;;;;1.88;1.27;;;16.00;71.60;;;;;;5113319;28;20093;-48
2022/04/10 12:58:05;;;;;;;2.35;1.48;;;16.30;68.30;;;;;;5099554;28;20019;-55